Time;durP1;ratioP1;P1;durP2;ratioP2;P2;SDS_P1;SDS_P2;PMS_P1;PMS_P2;Temp;Humidity;BMP_temperature;BMP_pressure;BME280_temperature;BME280_humidity;BME280_pressure;Samples;Min_cycle;Max_cycle;Signal;HPM_P1;HPM_P2
2020/12/27 00:02:14;;;;;;;17.33;11.13;;;1.30;75.40;;;;;;5077353;28;20013;-45
2020/12/27 00:04:40;;;;;;;17.35;10.52;;;1.30;76.00;;;;;;5077777;28;20032;-43
2020/12/27 00:07:07;;;;;;;17.23;10.60;;;1.30;75.40;;;;;;5077251;28;20021;-44
2020/12/27 00:09:35;;;;;;;19.20;10.50;;;1.30;75.40;;;;;;5077656;28;20372;-43
2020/12/27 00:12:01;;;;;;;17.60;11.13;;;1.20;75.40;;;;;;5075909;28;20052;-44
2020/12/27 00:14:26;;;;;;;18.55;10.98;;;1.20;75.40;;;;;;5077490;28;20035;-43
2020/12/27 00:16:52;;;;;;;17.15;10.52;;;1.20;75.40;;;;;;5077012;28;20090;-44
2020/12/27 00:19:18;;;;;;;18.02;11.48;;;1.20;75.30;;;;;;5077401;28;20033;-43
2020/12/27 00:21:44;;;;;;;17.17;10.32;;;1.20;75.40;;;;;;5076713;28;20334;-44
2020/12/27 00:24:09;;;;;;;16.25;10.30;;;1.20;75.40;;;;;;5077091;28;20035;-44
2020/12/27 00:26:36;;;;;;;16.65;10.63;;;1.20;75.50;;;;;;5076652;28;20430;-43
2020/12/27 00:29:01;;;;;;;15.18;9.35;;;1.10;75.50;;;;;;5077173;28;20314;-43
2020/12/27 00:31:27;;;;;;;21.77;12.05;;;1.10;75.60;;;;;;5076234;28;20021;-44
2020/12/27 00:33:53;;;;;;;18.02;12.00;;;1.10;75.60;;;;;;5076834;28;20082;-44
2020/12/27 00:36:20;;;;;;;20.23;11.30;;;1.20;75.60;;;;;;5076407;28;20035;-44
2020/12/27 00:38:46;;;;;;;14.32;9.32;;;1.10;75.40;;;;;;5076772;28;20060;-43
2020/12/27 00:41:12;;;;;;;19.98;11.30;;;1.10;75.30;;;;;;5076454;28;20058;-44
2020/12/27 00:43:38;;;;;;;20.33;11.35;;;1.10;75.30;;;;;;5077144;28;20365;-44
2020/12/27 00:46:03;;;;;;;16.65;10.55;;;1.10;75.30;;;;;;5076401;28;20027;-47
2020/12/27 00:48:29;;;;;;;19.80;11.48;;;1.10;75.40;;;;;;5076555;28;20036;-44
2020/12/27 00:50:55;;;;;;;21.23;12.57;;;1.10;75.50;;;;;;5076558;28;20050;-45
2020/12/27 00:53:20;;;;;;;24.88;12.35;;;1.10;75.50;;;;;;5076365;28;20107;-44
2020/12/27 00:55:46;;;;;;;18.92;11.93;;;1.00;75.40;;;;;;5076253;28;20028;-44
2020/12/27 00:58:12;;;;;;;21.13;13.63;;;1.00;75.50;;;;;;5076221;28;20371;-43
2020/12/27 01:00:37;;;;;;;18.33;11.48;;;1.00;75.60;;;;;;5076550;28;20020;-45
2020/12/27 01:03:03;;;;;;;17.15;11.15;;;1.00;76.20;;;;;;5076082;28;20032;-44
2020/12/27 01:05:28;;;;;;;17.17;11.00;;;0.90;75.80;;;;;;5076159;28;20031;-43
2020/12/27 01:07:54;;;;;;;17.95;10.15;;;0.90;75.80;;;;;;5076038;28;20448;-42
2020/12/27 01:10:20;;;;;;;14.40;8.95;;;0.90;75.90;;;;;;5076696;28;20017;-46
2020/12/27 01:12:46;;;;;;;18.67;11.52;;;0.90;76.00;;;;;;5075938;28;20084;-43
2020/12/27 01:15:12;;;;;;;17.27;10.70;;;0.90;75.90;;;;;;5076344;28;20024;-43
2020/12/27 01:17:38;;;;;;;17.30;10.57;;;0.90;75.90;;;;;;5076202;28;20436;-43
2020/12/27 01:20:04;;;;;;;16.15;9.68;;;0.90;75.90;;;;;;5076272;28;20046;-43
2020/12/27 01:22:34;;;;;;;16.65;10.23;;;0.90;76.00;;;;;;5075994;28;20120;-43
2020/12/27 01:25:00;;;;;;;16.70;10.43;;;0.90;76.00;;;;;;5078729;28;20066;-43
2020/12/27 01:27:26;;;;;;;15.48;9.57;;;0.80;75.90;;;;;;5079989;28;20024;-43
2020/12/27 01:29:52;;;;;;;14.98;9.32;;;0.80;76.00;;;;;;5079935;28;20028;-43
2020/12/27 01:32:18;;;;;;;16.50;9.32;;;0.80;76.10;;;;;;5080247;28;20020;-43
2020/12/27 01:34:44;;;;;;;13.35;8.85;;;0.80;76.20;;;;;;5080262;28;20115;-43
2020/12/27 01:37:10;;;;;;;14.05;9.07;;;0.80;76.30;;;;;;5080102;28;20425;-43
2020/12/27 01:39:36;;;;;;;14.20;9.43;;;0.80;76.30;;;;;;5080303;28;20052;-43
2020/12/27 01:42:01;;;;;;;13.98;8.60;;;0.80;76.30;;;;;;5080120;28;20426;-43
2020/12/27 01:44:27;;;;;;;13.68;8.80;;;0.80;76.30;;;;;;5080399;28;20036;-43
2020/12/27 01:46:53;;;;;;;16.52;9.25;;;0.80;76.30;;;;;;5080026;28;20028;-44
2020/12/27 01:49:19;;;;;;;16.35;9.10;;;0.80;76.80;;;;;;5080075;28;20326;-43
2020/12/27 01:51:44;;;;;;;15.35;9.27;;;0.80;76.20;;;;;;5078603;28;20056;-43
2020/12/27 01:54:10;;;;;;;13.70;8.60;;;0.80;76.20;;;;;;5078246;28;20052;-43
2020/12/27 01:56:40;;;;;;;15.02;9.82;;;0.80;76.10;;;;;;5077741;28;20032;-43
2020/12/27 01:59:14;;;;;;;14.82;9.00;;;0.80;76.10;;;;;;5078125;28;20032;-43
2020/12/27 02:01:40;;;;;;;21.13;9.82;;;0.80;76.00;;;;;;5077789;28;20028;-45
2020/12/27 02:04:06;;;;;;;14.35;8.90;;;0.80;76.10;;;;;;5078127;28;20029;-43
2020/12/27 02:06:32;;;;;;;17.23;8.73;;;0.80;76.00;;;;;;5077074;28;20399;-44
2020/12/27 02:08:59;;;;;;;12.63;7.93;;;0.70;76.00;;;;;;5079666;28;20315;-43
2020/12/27 02:11:25;;;;;;;16.35;8.45;;;0.70;76.00;;;;;;5078720;28;20024;-44
2020/12/27 02:13:59;;;;;;;13.70;9.15;;;0.70;76.00;;;;;;5079784;28;20036;-44
2020/12/27 02:16:27;;;;;;;13.07;7.55;;;0.80;76.00;;;;;;5078783;28;20505;-45
2020/12/27 02:18:57;;;;;;;16.23;9.55;;;0.80;75.90;;;;;;5079408;28;20036;-43
2020/12/27 02:21:23;;;;;;;13.40;8.33;;;0.80;75.90;;;;;;5079359;28;20028;-45
2020/12/27 02:23:54;;;;;;;12.82;7.72;;;0.80;75.80;;;;;;5079625;28;20277;-44
2020/12/27 02:26:20;;;;;;;12.68;8.07;;;0.80;75.70;;;;;;5078974;28;20036;-45
2020/12/27 02:28:45;;;;;;;11.32;7.22;;;0.70;75.60;;;;;;5079310;28;20036;-43
2020/12/27 02:31:11;;;;;;;12.63;7.65;;;0.70;75.60;;;;;;5079106;28;20031;-43
2020/12/27 02:33:37;;;;;;;11.48;7.13;;;0.70;75.70;;;;;;5079038;28;20024;-44
2020/12/27 02:36:03;;;;;;;13.57;8.43;;;0.70;75.80;;;;;;5078190;28;20430;-46
2020/12/27 02:38:28;;;;;;;11.10;7.50;;;0.70;75.80;;;;;;5078900;28;20445;-47
2020/12/27 02:40:54;;;;;;;11.43;7.55;;;0.70;75.70;;;;;;5078643;28;20021;-46
2020/12/27 02:43:20;;;;;;;13.27;8.40;;;0.70;75.60;;;;;;5077509;28;20024;-44
2020/12/27 02:45:47;;;;;;;11.82;7.45;;;0.70;75.60;;;;;;5078323;28;20119;-45
2020/12/27 02:48:13;;;;;;;14.77;8.15;;;0.70;75.60;;;;;;5078746;28;20040;-46
2020/12/27 02:50:39;;;;;;;13.60;7.57;;;0.70;75.50;;;;;;5078558;28;20028;-44
2020/12/27 02:53:05;;;;;;;14.60;8.02;;;0.70;75.50;;;;;;5078782;28;20062;-44
2020/12/27 02:55:31;;;;;;;12.23;7.60;;;0.70;75.50;;;;;;5078444;28;20345;-44
2020/12/27 02:57:58;;;;;;;12.70;7.45;;;0.70;75.40;;;;;;5078364;28;20475;-44
2020/12/27 03:00:24;;;;;;;14.77;8.55;;;0.70;75.30;;;;;;5078592;28;20029;-45
2020/12/27 03:02:49;;;;;;;11.52;7.60;;;0.70;75.40;;;;;;5078794;28;20082;-44
2020/12/27 03:05:15;;;;;;;10.73;7.07;;;0.70;75.40;;;;;;5078544;28;20029;-43
2020/12/27 03:07:41;;;;;;;12.85;7.70;;;0.70;75.40;;;;;;5078557;28;20028;-43
2020/12/27 03:10:07;;;;;;;8.20;6.38;;;0.70;75.40;;;;;;5078226;28;20111;-44
2020/12/27 03:12:33;;;;;;;9.82;6.57;;;0.70;75.40;;;;;;5078299;28;20402;-43
2020/12/27 03:14:58;;;;;;;8.45;5.93;;;0.70;75.40;;;;;;5078088;28;20070;-44
2020/12/27 03:17:24;;;;;;;11.45;7.32;;;0.70;75.40;;;;;;5078350;28;20036;-43
2020/12/27 03:19:50;;;;;;;11.93;7.95;;;0.70;75.30;;;;;;5078532;28;20107;-43
2020/12/27 03:22:16;;;;;;;12.38;7.30;;;0.70;75.10;;;;;;5077616;28;20020;-44
2020/12/27 03:24:41;;;;;;;12.35;7.53;;;0.70;75.10;;;;;;5078388;28;20115;-43
2020/12/27 03:27:07;;;;;;;12.10;8.15;;;0.70;75.00;;;;;;5078328;28;20025;-44
2020/12/27 03:29:33;;;;;;;10.70;6.78;;;0.70;74.90;;;;;;5078268;28;20036;-43
2020/12/27 03:31:58;;;;;;;11.38;6.78;;;0.70;74.90;;;;;;5077449;28;20414;-43
2020/12/27 03:34:24;;;;;;;10.85;6.70;;;0.70;75.00;;;;;;5078084;28;20028;-44
2020/12/27 03:36:50;;;;;;;11.35;7.10;;;0.70;75.10;;;;;;5077571;28;20041;-45
2020/12/27 03:39:15;;;;;;;13.98;6.80;;;0.70;75.00;;;;;;5078242;28;20032;-44
2020/12/27 03:41:41;;;;;;;9.82;7.05;;;0.70;74.80;;;;;;5077565;28;20398;-46
2020/12/27 03:44:07;;;;;;;11.77;7.32;;;0.70;74.70;;;;;;5077668;28;20121;-43
2020/12/27 03:46:33;;;;;;;11.43;6.93;;;0.70;74.60;;;;;;5076515;28;20108;-44
2020/12/27 03:48:58;;;;;;;9.25;6.20;;;0.70;74.60;;;;;;5077934;28;20028;-44
2020/12/27 03:51:25;;;;;;;11.63;7.93;;;0.70;74.60;;;;;;5077353;28;20452;-44
2020/12/27 03:53:51;;;;;;;11.00;6.97;;;0.70;74.60;;;;;;5077652;28;20376;-43
2020/12/27 03:56:17;;;;;;;11.00;6.82;;;0.70;74.50;;;;;;5076819;28;20037;-45
2020/12/27 03:58:42;;;;;;;11.88;7.45;;;0.70;74.50;;;;;;5077708;28;20032;-43
2020/12/27 04:01:08;;;;;;;10.07;7.30;;;0.70;74.40;;;;;;5077329;28;20033;-44
2020/12/27 04:03:34;;;;;;;13.18;8.52;;;0.70;74.30;;;;;;5077296;28;20380;-43
2020/12/27 04:06:01;;;;;;;13.25;7.38;;;0.70;74.20;;;;;;5077260;28;20060;-44
2020/12/27 04:08:28;;;;;;;10.52;6.65;;;0.70;74.20;;;;;;5077579;28;20408;-43
2020/12/27 04:10:53;;;;;;;10.15;6.63;;;0.70;74.20;;;;;;5076955;28;20032;-44
2020/12/27 04:13:19;;;;;;;11.02;6.70;;;0.70;74.30;;;;;;5076747;28;20065;-43
2020/12/27 04:15:46;;;;;;;12.63;7.22;;;0.70;74.30;;;;;;5076544;28;20123;-43
2020/12/27 04:18:11;;;;;;;10.57;6.97;;;0.70;74.10;;;;;;5076851;28;20449;-44
2020/12/27 04:20:37;;;;;;;10.68;6.30;;;0.70;74.00;;;;;;5076778;28;20024;-44
2020/12/27 04:23:02;;;;;;;11.60;6.90;;;0.70;73.80;;;;;;5076649;28;20434;-44
2020/12/27 04:25:30;;;;;;;12.18;6.75;;;0.80;73.80;;;;;;5076965;28;20032;-44
2020/12/27 04:27:55;;;;;;;15.02;8.65;;;0.70;73.70;;;;;;5076959;28;20111;-43
2020/12/27 04:30:21;;;;;;;13.60;7.97;;;0.70;73.60;;;;;;5076563;28;20390;-44
2020/12/27 04:32:47;;;;;;;13.75;7.78;;;0.70;73.60;;;;;;5076981;28;20036;-43
2020/12/27 04:35:12;;;;;;;16.80;9.07;;;0.70;73.60;;;;;;5076772;28;20016;-44
2020/12/27 04:37:38;;;;;;;16.08;8.88;;;0.70;73.60;;;;;;5076673;28;20115;-44
2020/12/27 04:40:06;;;;;;;15.85;8.93;;;0.70;73.60;;;;;;5076674;28;20051;-46
2020/12/27 04:42:31;;;;;;;27.88;11.55;;;0.70;73.50;;;;;;5076411;28;20069;-44
2020/12/27 04:44:58;;;;;;;20.25;11.27;;;0.70;73.50;;;;;;5076658;28;20144;-43
2020/12/27 04:47:25;;;;;;;25.52;12.30;;;0.70;73.50;;;;;;5076272;28;20020;-43
2020/12/27 04:49:51;;;;;;;16.33;9.63;;;0.70;73.40;;;;;;5076555;28;20017;-45
2020/12/27 04:52:20;;;;;;;15.77;8.68;;;0.70;73.40;;;;;;5076288;28;20016;-44
2020/12/27 04:54:50;;;;;;;13.70;8.10;;;0.70;73.50;;;;;;5077038;28;20093;-43
2020/12/27 04:57:18;;;;;;;13.35;8.50;;;0.70;73.50;;;;;;5076019;28;20032;-44
2020/12/27 04:59:47;;;;;;;10.82;7.15;;;0.70;73.50;;;;;;5076913;28;20032;-43
2020/12/27 05:02:14;;;;;;;11.50;7.15;;;0.60;73.30;;;;;;5076123;28;20025;-43
2020/12/27 05:04:42;;;;;;;12.73;7.35;;;0.60;73.10;;;;;;5076935;28;20326;-43
2020/12/27 05:07:07;;;;;;;13.02;7.57;;;0.60;73.00;;;;;;5076147;28;20345;-43
2020/12/27 05:09:33;;;;;;;9.63;6.32;;;0.50;72.80;;;;;;5076038;28;20032;-43
2020/12/27 05:11:59;;;;;;;12.35;7.68;;;0.50;72.90;;;;;;5076263;28;20052;-44
2020/12/27 05:14:26;;;;;;;14.90;9.00;;;0.50;73.10;;;;;;5076724;28;20033;-43
2020/12/27 05:16:56;;;;;;;18.70;8.90;;;0.40;73.20;;;;;;5076009;28;20040;-43
2020/12/27 05:19:22;;;;;;;12.90;7.90;;;0.40;73.40;;;;;;5076680;28;20037;-43
2020/12/27 05:21:48;;;;;;;14.18;8.70;;;0.40;73.40;;;;;;5076031;28;20028;-43
2020/12/27 05:24:16;;;;;;;16.67;8.55;;;0.40;73.50;;;;;;5076358;28;20334;-43
2020/12/27 05:26:41;;;;;;;16.20;9.20;;;0.30;73.50;;;;;;5075000;28;20414;-43
2020/12/27 05:29:09;;;;;;;14.60;8.95;;;0.30;73.70;;;;;;5076239;28;20055;-43
2020/12/27 05:31:37;;;;;;;15.82;7.93;;;0.30;73.70;;;;;;5075618;28;20055;-43
2020/12/27 05:34:08;;;;;;;14.05;7.80;;;0.30;73.80;;;;;;5076383;28;20429;-43
2020/12/27 05:36:34;;;;;;;16.17;8.57;;;0.30;73.90;;;;;;5076272;28;20049;-44
2020/12/27 05:39:00;;;;;;;20.75;10.27;;;0.30;73.90;;;;;;5076337;28;20035;-43
2020/12/27 05:41:27;;;;;;;23.77;11.13;;;0.30;73.80;;;;;;5076030;28;20028;-43
2020/12/27 05:44:03;;;;;;;17.77;8.88;;;0.30;73.80;;;;;;5076442;28;20039;-45
2020/12/27 05:46:29;;;;;;;31.17;12.68;;;0.40;73.90;;;;;;5075995;28;20103;-43
2020/12/27 05:48:56;;;;;;;23.23;11.27;;;0.30;73.70;;;;;;5076139;28;20025;-43
2020/12/27 05:51:23;;;;;;;19.17;9.73;;;0.40;73.80;;;;;;5075948;28;20082;-43
2020/12/27 05:53:53;;;;;;;19.95;10.00;;;0.30;73.70;;;;;;5075999;28;20031;-43
2020/12/27 05:56:22;;;;;;;28.25;14.25;;;0.30;73.60;;;;;;5075911;28;20341;-43
2020/12/27 05:58:48;;;;;;;24.88;13.05;;;0.30;73.50;;;;;;5075563;28;20033;-43
2020/12/27 06:01:22;;;;;;;54.13;21.10;;;0.30;73.40;;;;;;5076071;28;20334;-43
2020/12/27 06:04:00;;;;;;;53.45;22.67;;;0.20;73.40;;;;;;5078204;28;20020;-41
2020/12/27 06:06:47;;;;;;;40.72;16.75;;;0.20;73.50;;;;;;5060593;28;20021;-42
2020/12/27 06:09:32;;;;;;;29.58;15.27;;;0.20;73.70;;;;;;5074747;28;20617;-40
2020/12/27 06:12:02;;;;;;;26.00;13.50;;;0.10;73.90;;;;;;5081749;28;20067;-40
2020/12/27 06:14:43;;;;;;;29.70;13.82;;;0.10;74.00;;;;;;5083636;28;20337;-42
2020/12/27 06:17:10;;;;;;;29.25;14.02;;;0.10;74.20;;;;;;5083293;28;20041;-42
2020/12/27 06:19:39;;;;;;;28.90;15.18;;;0.10;74.40;;;;;;5098761;28;20035;-41
2020/12/27 06:22:10;;;;;;;39.33;16.33;;;0.10;74.50;;;;;;5088101;28;20097;-42
2020/12/27 06:24:37;;;;;;;39.87;16.57;;;0.10;74.70;;;;;;5078632;28;20064;-42
2020/12/27 06:27:05;;;;;;;34.95;16.58;;;0.20;74.80;;;;;;5078197;28;20596;-41
2020/12/27 06:29:40;;;;;;;30.50;15.52;;;0.20;74.80;;;;;;5098280;28;20365;-42
2020/12/27 06:32:08;;;;;;;26.40;15.15;;;0.20;74.70;;;;;;5097231;28;20020;-42
2020/12/27 06:34:35;;;;;;;49.97;20.90;;;0.30;74.90;;;;;;5097212;28;20039;-42
2020/12/27 06:37:05;;;;;;;27.80;14.55;;;0.30;74.80;;;;;;5097998;28;20031;-42
2020/12/27 06:39:31;;;;;;;23.63;13.70;;;0.30;74.90;;;;;;5098817;28;20027;-42
2020/12/27 06:42:18;;;;;;;30.92;15.55;;;0.40;74.90;;;;;;5096639;28;20433;-42
2020/12/27 06:44:50;;;;;;;25.98;15.23;;;0.40;74.90;;;;;;5098945;28;20024;-43
2020/12/27 06:47:17;;;;;;;20.35;12.35;;;0.40;74.90;;;;;;5097795;28;20024;-41
2020/12/27 06:49:44;;;;;;;22.27;13.15;;;0.50;75.00;;;;;;5098208;28;20344;-41
2020/12/27 06:52:21;;;;;;;23.35;14.25;;;0.50;75.10;;;;;;5097086;28;20012;-41
2020/12/27 06:54:48;;;;;;;22.45;12.63;;;0.60;75.20;;;;;;5092672;28;20032;-42
2020/12/27 06:57:45;;;;;;;20.08;12.30;;;0.60;75.20;;;;;;5087626;28;20437;-41
2020/12/27 07:00:21;;;;;;;26.17;15.40;;;0.70;75.20;;;;;;5086918;28;20055;-42
2020/12/27 07:02:48;;;;;;;15.88;9.35;;;0.70;75.10;;;;;;5098070;28;20032;-41
2020/12/27 07:05:46;;;;;;;20.95;13.07;;;0.80;75.00;;;;;;5097359;28;20075;-42
2020/12/27 07:08:14;;;;;;;21.38;11.80;;;0.90;75.10;;;;;;5014715;28;20056;-42
2020/12/27 07:10:44;;;;;;;19.23;12.23;;;0.90;75.00;;;;;;5068845;28;20029;-42
2020/12/27 07:13:11;;;;;;;35.42;17.33;;;1.00;74.90;;;;;;5076588;28;20370;-41
2020/12/27 07:15:58;;;;;;;68.80;27.80;;;1.00;74.90;;;;;;5077782;28;20024;-42
2020/12/27 07:18:28;;;;;;;59.15;24.52;;;1.10;74.90;;;;;;5077555;28;20434;-42
2020/12/27 07:20:56;;;;;;;50.40;21.40;;;1.20;74.70;;;;;;5077394;28;20073;-42
2020/12/27 07:23:29;;;;;;;40.25;19.70;;;1.20;74.30;;;;;;5079547;28;20107;-41
2020/12/27 07:25:56;;;;;;;34.47;18.25;;;1.20;74.30;;;;;;5076958;28;20028;-41
2020/12/27 07:28:24;;;;;;;31.00;16.55;;;1.30;74.40;;;;;;5083051;28;20032;-42
2020/12/27 07:31:02;;;;;;;36.88;18.48;;;1.30;74.70;;;;;;5077382;28;20020;-42
2020/12/27 07:33:30;;;;;;;34.10;18.42;;;1.40;74.90;;;;;;5079337;28;20332;-41
2020/12/27 07:36:09;;;;;;;43.95;23.17;;;1.40;74.80;;;;;;5078915;28;20059;-42
2020/12/27 07:38:59;;;;;;;40.72;21.00;;;1.50;74.20;;;;;;5077151;28;20128;-42
2020/12/27 07:41:29;;;;;;;33.00;18.95;;;1.50;74.00;;;;;;5095695;28;20024;-42
2020/12/27 07:43:56;;;;;;;39.38;22.00;;;1.50;74.30;;;;;;5097349;28;20035;-42
2020/12/27 07:46:23;;;;;;;39.53;21.48;;;1.60;74.50;;;;;;5083905;28;20039;-42
2020/12/27 07:48:49;;;;;;;32.05;17.98;;;1.60;74.60;;;;;;5076624;28;20028;-42
2020/12/27 07:51:20;;;;;;;41.30;21.90;;;1.60;74.60;;;;;;5076340;28;20044;-42
2020/12/27 07:53:56;;;;;;;32.08;17.50;;;1.70;74.70;;;;;;5094029;28;20071;-42
2020/12/27 07:56:25;;;;;;;33.75;19.15;;;1.80;74.90;;;;;;5096445;28;20032;-42
2020/12/27 07:58:52;;;;;;;35.10;18.95;;;1.80;74.60;;;;;;5095885;28;20082;-42
2020/12/27 08:01:31;;;;;;;57.58;33.22;;;1.90;74.70;;;;;;5076286;28;20016;-42
2020/12/27 08:04:15;;;;;;;36.35;19.88;;;2.00;74.70;;;;;;5076415;28;20448;-43
2020/12/27 08:06:41;;;;;;;39.85;19.83;;;2.10;74.60;;;;;;5078198;28;20016;-41
2020/12/27 08:09:07;;;;;;;38.15;20.58;;;2.10;74.40;;;;;;5086412;28;20429;-42
2020/12/27 08:11:38;;;;;;;34.10;19.83;;;2.30;74.30;;;;;;5087628;28;20024;-41
2020/12/27 08:14:06;;;;;;;38.75;19.30;;;2.30;74.00;;;;;;5088150;28;20040;-42
2020/12/27 08:16:33;;;;;;;35.83;19.38;;;2.40;74.00;;;;;;5093790;28;20126;-42
2020/12/27 08:19:03;;;;;;;42.78;23.60;;;2.50;73.70;;;;;;5075952;28;20028;-43
2020/12/27 08:21:30;;;;;;;36.38;20.40;;;2.60;73.80;;;;;;5091108;28;20020;-40
2020/12/27 08:24:16;;;;;;;30.00;16.40;;;2.60;73.60;;;;;;5095547;28;20058;-41
2020/12/27 08:26:44;;;;;;;27.10;15.05;;;2.70;73.20;;;;;;5093420;28;20061;-41
2020/12/27 08:29:20;;;;;;;15.30;9.23;;;2.80;73.20;;;;;;5096175;28;20051;-41
2020/12/27 08:31:48;;;;;;;22.20;11.63;;;2.80;72.60;;;;;;5079968;28;20020;-41
2020/12/27 08:34:16;;;;;;;18.42;10.05;;;2.80;72.60;;;;;;5074418;28;20381;-41
2020/12/27 08:36:49;;;;;;;23.05;12.45;;;2.90;72.40;;;;;;5075229;28;20044;-41
2020/12/27 08:39:38;;;;;;;21.25;12.65;;;3.00;72.20;;;;;;5075248;28;20036;-41
2020/12/27 08:42:07;;;;;;;17.00;10.57;;;3.10;72.20;;;;;;5073906;28;20538;-42
2020/12/27 08:45:02;;;;;;;19.40;10.07;;;3.20;71.60;;;;;;5087358;28;20039;-41
2020/12/27 08:47:45;;;;;;;19.88;12.50;;;3.20;71.40;;;;;;5073564;28;20028;-41
2020/12/27 08:50:16;;;;;;;18.60;10.60;;;3.30;71.50;;;;;;5054438;28;20021;-40
2020/12/27 08:52:53;;;;;;;;;;;3.40;71.30;;;;;;5054635;28;20123;-43
2020/12/27 08:55:27;;;;;;;21.88;12.55;;;3.40;71.80;;;;;;5053777;28;19904;-41
2020/12/27 08:57:54;;;;;;;24.77;14.13;;;3.50;71.30;;;;;;5055242;28;20426;-41
2020/12/27 09:00:20;;;;;;;22.95;14.70;;;3.50;71.10;;;;;;5084535;28;20111;-41
2020/12/27 09:02:56;;;;;;;20.98;11.25;;;3.60;70.90;;;;;;5084157;28;20067;-42
2020/12/27 09:05:26;;;;;;;21.00;12.52;;;3.60;70.70;;;;;;5075008;28;20028;-40
2020/12/27 09:07:52;;;;;;;28.00;14.77;;;3.70;70.40;;;;;;5068181;28;20153;-41
2020/12/27 09:10:27;;;;;;;30.58;16.35;;;3.70;70.50;;;;;;5074858;28;20350;-40
2020/12/27 09:12:58;;;;;;;29.38;15.10;;;3.70;69.50;;;;;;5074935;28;20117;-41
2020/12/27 09:15:26;;;;;;;22.15;12.75;;;3.70;69.20;;;;;;5074478;28;20048;-40
2020/12/27 09:18:17;;;;;;;23.42;13.40;;;3.80;69.20;;;;;;5073734;28;20093;-41
2020/12/27 09:20:44;;;;;;;22.92;12.60;;;3.80;69.20;;;;;;5078044;28;20048;-41
2020/12/27 09:23:18;;;;;;;21.23;12.70;;;3.80;69.40;;;;;;5074875;28;20028;-41
2020/12/27 09:25:45;;;;;;;19.50;11.80;;;3.80;69.20;;;;;;5075021;28;20326;-41
2020/12/27 09:28:16;;;;;;;20.85;12.20;;;3.80;69.00;;;;;;5095577;28;20036;-43
2020/12/27 09:30:57;;;;;;;27.25;12.52;;;3.80;68.70;;;;;;5095380;28;20306;-42
2020/12/27 09:33:23;;;;;;;30.75;14.13;;;3.80;68.70;;;;;;5089526;28;20056;-43
2020/12/27 09:35:59;;;;;;;23.27;13.25;;;3.80;68.70;;;;;;5072435;28;20028;-43
2020/12/27 09:38:28;;;;;;;26.77;14.25;;;3.70;68.60;;;;;;5074365;28;20127;-42
2020/12/27 09:41:16;;;;;;;28.65;15.50;;;3.70;68.70;;;;;;5073622;28;20032;-42
2020/12/27 09:43:53;;;;;;;31.65;17.02;;;3.70;68.70;;;;;;5068701;28;20032;-45
2020/12/27 09:47:02;;;;;;;25.63;15.63;;;3.70;68.90;;;;;;5076980;28;20027;-42
2020/12/27 09:49:31;;;;;;;27.52;15.98;;;3.70;69.00;;;;;;5034732;28;20033;-42
2020/12/27 09:52:11;;;;;;;23.75;14.63;;;3.70;69.20;;;;;;5034018;28;20028;-42
2020/12/27 09:54:39;;;;;;;23.52;14.38;;;3.80;69.20;;;;;;5060652;28;20033;-42
2020/12/27 09:57:14;;;;;;;22.65;13.20;;;3.80;69.20;;;;;;5075383;28;20043;-43
2020/12/27 09:59:43;;;;;;;20.70;12.65;;;3.80;69.10;;;;;;5076336;28;20402;-42
2020/12/27 10:02:09;;;;;;;21.33;12.82;;;3.90;69.20;;;;;;5064573;28;20029;-42
2020/12/27 10:04:35;;;;;;;23.25;13.00;;;3.90;69.10;;;;;;5075030;28;20021;-42
2020/12/27 10:07:01;;;;;;;21.10;12.60;;;3.90;68.90;;;;;;5069583;28;20017;-43
2020/12/27 10:09:28;;;;;;;21.95;13.25;;;4.00;68.90;;;;;;5054595;28;20519;-42
2020/12/27 10:11:54;;;;;;;23.13;13.07;;;4.00;68.70;;;;;;5056607;28;20071;-42
2020/12/27 10:14:20;;;;;;;24.92;14.38;;;4.00;68.40;;;;;;5056522;28;20439;-42
2020/12/27 10:16:46;;;;;;;26.20;13.70;;;4.10;68.90;;;;;;5055752;28;20033;-42
2020/12/27 10:19:12;;;;;;;21.02;12.77;;;4.10;68.70;;;;;;5063040;28;20032;-42
2020/12/27 10:21:37;;;;;;;19.95;12.02;;;4.20;68.50;;;;;;5076339;28;20020;-42
2020/12/27 10:24:03;;;;;;;20.10;11.93;;;4.20;68.40;;;;;;5077602;28;20033;-42
2020/12/27 10:26:29;;;;;;;22.90;13.00;;;4.30;68.40;;;;;;5076183;28;20028;-43
2020/12/27 10:28:54;;;;;;;32.63;14.32;;;4.30;68.20;;;;;;5076748;28;20325;-42
2020/12/27 10:31:20;;;;;;;19.38;11.77;;;4.40;68.20;;;;;;5076585;28;20028;-42
2020/12/27 10:33:46;;;;;;;19.80;12.80;;;4.40;67.60;;;;;;5076595;28;20460;-42
2020/12/27 10:36:11;;;;;;;22.25;13.18;;;4.50;67.60;;;;;;5075962;28;20033;-43
2020/12/27 10:38:37;;;;;;;25.00;12.32;;;4.60;67.60;;;;;;5078175;28;20024;-43
2020/12/27 10:41:03;;;;;;;25.95;14.30;;;4.60;67.00;;;;;;5077392;28;20110;-43
2020/12/27 10:43:29;;;;;;;16.88;9.70;;;4.70;66.70;;;;;;5078190;28;20345;-43
2020/12/27 10:46:03;;;;;;;13.27;8.52;;;4.70;66.70;;;;;;5077236;28;20025;-43
2020/12/27 10:48:33;;;;;;;15.80;9.50;;;4.80;66.30;;;;;;5076862;28;20033;-43
2020/12/27 10:50:59;;;;;;;17.92;8.07;;;4.90;66.00;;;;;;5076942;28;20059;-42
2020/12/27 10:53:25;;;;;;;10.43;6.70;;;4.90;65.50;;;;;;5076752;28;20029;-43
2020/12/27 10:55:51;;;;;;;9.38;6.00;;;5.00;65.10;;;;;;5068672;28;20339;-43
2020/12/27 10:58:17;;;;;;;11.18;5.80;;;5.00;64.80;;;;;;5056689;28;20044;-43
2020/12/27 11:00:44;;;;;;;14.90;8.00;;;5.10;64.10;;;;;;5056085;28;20434;-44
2020/12/27 11:03:10;;;;;;;13.13;7.75;;;5.10;63.70;;;;;;5057154;28;20029;-43
2020/12/27 11:05:35;;;;;;;20.10;11.50;;;5.20;63.70;;;;;;5056395;28;20025;-44
2020/12/27 11:08:01;;;;;;;20.35;13.02;;;5.30;63.80;;;;;;5057235;28;20029;-43
2020/12/27 11:10:27;;;;;;;21.27;9.82;;;5.30;63.80;;;;;;5055634;28;20045;-44
2020/12/27 11:12:53;;;;;;;16.30;7.63;;;5.40;63.30;;;;;;5055553;28;20092;-43
2020/12/27 11:15:19;;;;;;;8.70;5.75;;;5.40;63.10;;;;;;5055878;28;20064;-43
2020/12/27 11:17:44;;;;;;;20.80;11.75;;;5.50;63.00;;;;;;5055452;28;20132;-43
2020/12/27 11:20:13;;;;;;;20.30;12.15;;;5.60;63.30;;;;;;5055748;28;20116;-43
2020/12/27 11:22:42;;;;;;;27.30;16.73;;;5.60;62.90;;;;;;5055396;28;20075;-42
2020/12/27 11:25:09;;;;;;;25.25;15.00;;;5.70;62.90;;;;;;5056006;28;20090;-43
2020/12/27 11:27:35;;;;;;;37.85;19.30;;;5.70;62.90;;;;;;5056633;28;20040;-42
2020/12/27 11:30:02;;;;;;;36.67;19.67;;;5.70;62.90;;;;;;5056542;28;20342;-43
2020/12/27 11:32:28;;;;;;;36.53;18.60;;;5.80;62.70;;;;;;5056070;28;20338;-43
2020/12/27 11:34:54;;;;;;;42.47;21.05;;;5.80;62.60;;;;;;5070618;28;20021;-43
2020/12/27 11:37:20;;;;;;;52.40;24.60;;;5.90;62.70;;;;;;5054777;28;20036;-43
2020/12/27 11:39:46;;;;;;;36.03;20.92;;;5.90;62.60;;;;;;5055782;28;20040;-43
2020/12/27 11:42:11;;;;;;;52.05;26.60;;;5.90;62.70;;;;;;5055551;28;20033;-42
2020/12/27 11:44:37;;;;;;;51.05;25.60;;;5.90;62.60;;;;;;5055728;28;20029;-42
2020/12/27 11:47:04;;;;;;;47.47;24.70;;;6.00;62.70;;;;;;5055488;28;20029;-43
2020/12/27 11:49:30;;;;;;;58.70;30.30;;;6.00;62.70;;;;;;5056032;28;20035;-42
2020/12/27 11:51:56;;;;;;;105.28;47.17;;;6.00;62.60;;;;;;5056455;28;20037;-42
2020/12/27 11:54:21;;;;;;;114.80;48.55;;;6.10;62.30;;;;;;5055822;28;20068;-42
2020/12/27 11:56:48;;;;;;;99.20;43.35;;;6.10;62.20;;;;;;5069772;28;20036;-42
2020/12/27 11:59:14;;;;;;;109.90;43.60;;;6.10;62.30;;;;;;5076402;28;20025;-42
2020/12/27 12:01:44;;;;;;;88.38;38.85;;;6.20;62.30;;;;;;5075841;28;20047;-42
2020/12/27 12:04:10;;;;;;;82.85;38.70;;;6.10;62.20;;;;;;5076423;28;20028;-42
2020/12/27 12:06:35;;;;;;;88.57;42.42;;;6.10;62.30;;;;;;5075511;28;20123;-44
2020/12/27 12:09:02;;;;;;;90.35;42.85;;;6.10;62.20;;;;;;5075022;28;20119;-44
2020/12/27 12:11:41;;;;;;;105.75;46.42;;;6.00;62.20;;;;;;5074092;28;20028;-44
2020/12/27 12:14:07;;;;;;;100.03;45.40;;;6.00;62.10;;;;;;5076047;28;20038;-44
2020/12/27 12:16:35;;;;;;;112.28;48.83;;;6.00;62.30;;;;;;5075513;28;20115;-43
2020/12/27 12:19:05;;;;;;;119.10;52.53;;;5.90;62.30;;;;;;5074599;28;20442;-43
2020/12/27 12:21:32;;;;;;;119.55;53.80;;;5.80;62.40;;;;;;5069281;28;20385;-44
2020/12/27 12:23:59;;;;;;;115.47;52.60;;;5.80;62.60;;;;;;5073311;28;20059;-43
2020/12/27 12:26:27;;;;;;;104.43;47.65;;;5.80;62.70;;;;;;5073123;28;20028;-44
2020/12/27 12:28:52;;;;;;;108.72;50.35;;;5.70;62.90;;;;;;5072197;28;20090;-43
2020/12/27 12:31:18;;;;;;;99.95;48.08;;;5.70;63.10;;;;;;5072946;28;20016;-43
2020/12/27 12:33:45;;;;;;;99.65;45.53;;;5.60;63.20;;;;;;5073656;28;20625;-44
2020/12/27 12:36:19;;;;;;;94.38;44.13;;;5.60;63.30;;;;;;5072555;28;20031;-43
2020/12/27 12:38:45;;;;;;;100.13;44.47;;;5.60;63.30;;;;;;5075008;28;20045;-43
2020/12/27 12:41:11;;;;;;;94.97;46.10;;;5.50;63.40;;;;;;5075230;28;20081;-43
2020/12/27 12:43:38;;;;;;;101.03;48.15;;;5.50;63.50;;;;;;5075337;28;20307;-45
2020/12/27 12:46:04;;;;;;;107.60;45.58;;;5.50;63.60;;;;;;5074165;28;20095;-43
2020/12/27 12:48:30;;;;;;;142.10;63.40;;;5.50;63.70;;;;;;5074572;28;20325;-44